createdAt,value
2022-08-22T00:00:43.718Z,53.83
2022-08-22T00:02:57.439Z,18.57
2022-08-22T00:03:22.922Z,47.38
2022-08-22T00:06:04.186Z,51.98
2022-08-22T00:08:42.721Z,45.23
2022-08-22T00:11:22.258Z,51.75
2022-08-22T00:14:01.407Z,50.28
2022-08-22T00:16:39.086Z,48.70
2022-08-22T00:19:17.672Z,49.77
2022-08-22T00:21:54.796Z,57.17
2022-08-22T00:24:31.474Z,48.63
2022-08-22T00:27:07.429Z,50.92
2022-08-22T00:29:46.251Z,52.83
2022-08-22T00:32:22.533Z,59.18
2022-08-22T00:34:59.801Z,59.53
2022-08-22T00:37:36.935Z,56.28
2022-08-22T00:40:15.891Z,55.52
2022-08-22T00:43:15.776Z,58.13
2022-08-22T00:46:02.302Z,58.50
2022-08-22T00:49:12.818Z,54.75
2022-08-22T00:52:00.711Z,57.20
2022-08-22T00:54:43.447Z,56.77
2022-08-22T00:57:46.571Z,56.70
2022-08-22T01:00:22.010Z,59.93
2022-08-22T01:03:22.316Z,61.53
2022-08-22T01:06:05.442Z,62.80
2022-08-22T01:08:47.766Z,62.65
2022-08-22T01:11:31.195Z,63.63
2022-08-22T01:14:16.600Z,68.20
2022-08-22T01:17:13.238Z,65.50
2022-08-22T01:20:21.756Z,62.47
2022-08-22T01:23:28.642Z,66.42
2022-08-22T01:26:31.530Z,62.43
2022-08-22T01:29:37.388Z,67.55
2022-08-22T01:33:06.595Z,74.53
2022-08-22T01:39:35.449Z,78.72
2022-08-22T01:42:39.534Z,69.27
2022-08-22T01:45:39.047Z,66.70
2022-08-22T01:48:15.386Z,75.87
2022-08-22T01:50:51.166Z,71.72
2022-08-22T01:53:28.167Z,73.12
2022-08-22T01:58:38.640Z,68.55
2022-08-22T02:01:20.330Z,67.15
2022-08-22T02:04:00.998Z,71.22
2022-08-22T02:06:42.293Z,71.67
2022-08-22T02:09:24.335Z,68.05
2022-08-22T02:12:00.365Z,78.07
2022-08-22T02:14:41.825Z,73.70
2022-08-22T02:17:19.916Z,73.97
2022-08-22T02:19:58.253Z,69.97
2022-08-22T02:22:44.795Z,67.72
2022-08-22T02:25:19.482Z,72.92
2022-08-22T02:27:57.602Z,72.58
2022-08-22T02:30:35.197Z,64.87
2022-08-22T02:33:11.457Z,76.82
2022-08-22T02:35:48.782Z,79.32
2022-08-22T02:38:28.492Z,75.10
2022-08-22T02:41:10.589Z,61.60
2022-08-22T02:43:47.780Z,73.33
2022-08-22T02:46:29.015Z,74.35
2022-08-22T02:49:06.869Z,66.12
2022-08-22T02:51:43.443Z,62.35
2022-08-22T02:54:21.217Z,74.37
2022-08-22T02:59:34.579Z,72.72
2022-08-22T03:05:23.273Z,66.55
2022-08-22T03:08:00.413Z,63.08
2022-08-22T03:10:38.176Z,70.55
2022-08-22T03:13:14.262Z,68.67
2022-08-22T03:15:50.089Z,75.80
2022-08-22T03:18:27.564Z,66.02
2022-08-22T03:21:03.736Z,66.95
2022-08-22T03:23:40.639Z,69.17
2022-08-22T03:26:17.794Z,66.65
2022-08-22T03:28:58.871Z,64.03
2022-08-22T03:31:31.022Z,64.72
2022-08-22T03:34:22.924Z,66.57
2022-08-22T03:37:06.701Z,54.38
2022-08-22T03:39:50.031Z,70.20
2022-08-22T03:43:00.846Z,68.42
2022-08-22T03:46:17.817Z,72.78
2022-08-22T03:49:23.821Z,71.30
2022-08-22T03:52:14.116Z,73.50
2022-08-22T03:55:12.616Z,68.50
2022-08-22T03:58:15.860Z,74.37
2022-08-22T04:04:23.934Z,80.72
2022-08-22T04:07:28.329Z,71.12
2022-08-22T04:13:36.302Z,72.25
2022-08-22T04:16:23.904Z,79.75
2022-08-22T04:22:12.284Z,78.02
2022-08-22T04:25:05.863Z,80.22
2022-08-22T04:27:40.697Z,80.60
2022-08-22T04:30:17.876Z,76.10
2022-08-22T04:32:57.662Z,80.00
2022-08-22T04:35:34.287Z,83.75
2022-08-22T04:38:11.639Z,83.70
2022-08-22T04:40:48.170Z,78.33
2022-08-22T04:43:25.377Z,81.40
2022-08-22T04:46:01.929Z,73.83
2022-08-22T04:51:23.281Z,76.77
2022-08-22T04:54:10.791Z,85.72
2022-08-22T04:59:20.734Z,77.85
2022-08-22T05:01:59.344Z,77.10
2022-08-22T05:04:35.866Z,82.12
2022-08-22T05:07:12.858Z,90.75
2022-08-22T05:09:49.434Z,84.60
2022-08-22T05:12:26.185Z,92.02
2022-08-22T05:17:46.761Z,95.50
2022-08-22T05:20:23.584Z,103.12
2022-08-22T05:22:59.912Z,119.43
2022-08-22T05:25:36.952Z,115.00
2022-08-22T05:28:14.037Z,119.22
2022-08-22T05:30:48.957Z,126.62
2022-08-22T05:33:25.228Z,119.40
2022-08-22T05:36:01.875Z,118.57
2022-08-22T05:38:38.240Z,117.85
2022-08-22T05:41:14.940Z,123.47
2022-08-22T05:43:50.297Z,121.22
2022-08-22T05:46:27.067Z,119.85
2022-08-22T05:49:04.021Z,114.00
2022-08-22T05:51:40.225Z,134.93
2022-08-22T05:54:16.679Z,124.25
2022-08-22T05:56:53.199Z,133.82
2022-08-22T05:59:29.249Z,114.32
2022-08-22T06:02:06.965Z,125.33
2022-08-22T06:04:43.923Z,133.52
2022-08-22T06:07:22.311Z,128.03
2022-08-22T06:10:15.669Z,128.95
2022-08-22T06:12:53.514Z,128.02
2022-08-22T06:15:31.319Z,139.55
2022-08-22T06:18:10.443Z,133.00
2022-08-22T06:20:47.050Z,127.92
2022-08-22T06:23:23.554Z,137.47
2022-08-22T06:26:00.299Z,137.85
2022-08-22T06:28:37.128Z,135.12
2022-08-22T06:31:15.924Z,146.98
2022-08-22T06:33:52.257Z,140.62
2022-08-22T06:36:34.224Z,141.37
2022-08-22T06:39:15.879Z,148.35
2022-08-22T06:41:54.005Z,145.95
2022-08-22T06:44:32.328Z,139.10
2022-08-22T06:47:11.765Z,147.20
2022-08-22T06:49:47.323Z,138.32
2022-08-22T06:52:23.821Z,140.88
2022-08-22T06:55:01.063Z,144.75
2022-08-22T06:57:40.708Z,150.47
2022-08-22T07:00:18.389Z,149.93
2022-08-22T07:05:28.992Z,134.85
2022-08-22T07:08:08.657Z,138.72
2022-08-22T07:10:45.721Z,147.20
2022-08-22T07:13:21.032Z,140.77
2022-08-22T07:15:56.989Z,135.25
2022-08-22T07:18:33.270Z,143.78
2022-08-22T07:21:09.421Z,147.07
2022-08-22T07:23:47.068Z,143.85
2022-08-22T07:26:24.388Z,147.15
2022-08-22T07:29:00.702Z,145.62
2022-08-22T07:31:40.100Z,128.65
2022-08-22T07:34:24.010Z,141.35
2022-08-22T07:37:02.415Z,131.47
2022-08-22T07:39:39.339Z,128.95
2022-08-22T07:42:18.993Z,132.27
2022-08-22T07:45:00.877Z,128.78
2022-08-22T07:47:56.059Z,123.30
2022-08-22T07:50:35.298Z,123.72
2022-08-22T07:53:11.994Z,119.90
2022-08-22T07:55:49.917Z,107.37
2022-08-22T07:58:26.400Z,110.35
2022-08-22T08:01:01.106Z,111.37
2022-08-22T08:03:35.515Z,110.03
2022-08-22T08:06:10.296Z,104.58
2022-08-22T08:08:46.320Z,109.57
2022-08-22T08:11:21.753Z,101.87
2022-08-22T08:13:58.943Z,95.12
2022-08-22T08:16:37.932Z,103.05
2022-08-22T08:19:13.991Z,105.78
2022-08-22T08:21:50.843Z,102.95
2022-08-22T08:24:27.695Z,101.22
2022-08-22T08:27:22.750Z,98.82
2022-08-22T08:29:59.216Z,107.90
2022-08-22T08:32:36.821Z,111.30
2022-08-22T08:35:14.249Z,107.75
2022-08-22T08:37:51.556Z,110.22
2022-08-22T08:40:32.896Z,103.07
2022-08-22T08:43:30.113Z,102.30
2022-08-22T08:46:58.734Z,102.55
2022-08-22T08:50:04.805Z,99.32
2022-08-22T08:52:51.044Z,104.78
2022-08-22T08:55:29.638Z,103.53
2022-08-22T08:58:17.674Z,96.22
2022-08-22T09:00:59.322Z,97.65
2022-08-22T09:07:22.647Z,91.30
2022-08-22T09:10:06.498Z,91.32
2022-08-22T09:12:56.143Z,91.87
2022-08-22T09:18:25.071Z,93.55
2022-08-22T09:21:32.791Z,90.22
2022-08-22T09:24:16.735Z,100.75
2022-08-22T09:26:53.366Z,95.32
2022-08-22T09:29:54.962Z,95.15
2022-08-22T09:32:23.983Z,96.78
2022-08-22T09:35:05.473Z,100.10
2022-08-22T09:37:46.579Z,96.75
2022-08-22T09:43:03.377Z,97.22
2022-08-22T09:45:51.395Z,92.80
2022-08-22T09:48:51.352Z,92.62
2022-08-22T09:54:32.997Z,83.12
2022-08-22T09:57:19.856Z,69.67
2022-08-22T10:00:00.224Z,71.85
2022-08-22T10:02:43.371Z,69.67
2022-08-22T10:05:41.080Z,70.50
2022-08-22T10:08:12.973Z,70.42
2022-08-22T10:11:06.645Z,74.10
2022-08-22T10:13:57.536Z,69.62
2022-08-22T10:16:38.961Z,75.75
2022-08-22T10:19:18.881Z,74.03
2022-08-22T10:22:15.851Z,76.25
2022-08-22T10:24:54.641Z,79.17
2022-08-22T10:27:34.551Z,74.95
2022-08-22T10:30:13.375Z,71.28
2022-08-22T10:32:50.258Z,62.62
2022-08-22T10:38:02.187Z,58.63
2022-08-22T10:40:40.396Z,48.48
2022-08-22T10:43:16.831Z,50.43
2022-08-22T10:45:53.449Z,52.17
2022-08-22T10:48:33.785Z,46.15
2022-08-22T10:51:16.505Z,40.92
2022-08-22T10:56:59.431Z,30.00
2022-08-22T10:59:40.409Z,25.48
2022-08-22T11:02:53.195Z,24.15
2022-08-22T11:05:44.842Z,29.20
2022-08-22T11:09:07.826Z,22.02
2022-08-22T11:11:47.954Z,22.32
2022-08-22T11:14:29.562Z,22.10
2022-08-22T11:17:27.392Z,22.75
2022-08-22T11:19:53.343Z,25.25
2022-08-22T11:22:34.979Z,26.52
2022-08-22T11:25:38.849Z,28.67
2022-08-22T11:28:37.590Z,21.48
2022-08-22T11:31:16.614Z,21.07
2022-08-22T11:33:54.916Z,19.05
2022-08-22T11:36:32.192Z,19.98
2022-08-22T11:39:18.399Z,26.25
2022-08-22T11:41:52.769Z,22.85
2022-08-22T11:44:31.342Z,24.57
2022-08-22T11:47:11.155Z,23.65
2022-08-22T11:50:13.551Z,20.12
2022-08-22T11:53:01.496Z,18.92
2022-08-22T11:55:39.384Z,17.75
2022-08-22T11:58:28.686Z,21.75
2022-08-22T12:03:45.122Z,12.90
2022-08-22T12:06:49.714Z,15.78
2022-08-22T12:09:45.550Z,19.00
2022-08-22T12:12:42.169Z,13.88
2022-08-22T12:15:21.313Z,13.48
2022-08-22T12:21:47.119Z,10.10
2022-08-22T12:24:35.739Z,12.68
2022-08-22T12:27:28.449Z,11.40
2022-08-22T12:30:03.295Z,13.15
2022-08-22T12:32:50.416Z,12.70
2022-08-22T12:35:48.477Z,14.90
2022-08-22T12:38:38.084Z,17.15
2022-08-22T12:41:28.439Z,14.73
2022-08-22T12:43:59.690Z,18.95
2022-08-22T12:46:47.410Z,17.17
2022-08-22T12:49:36.025Z,17.00
2022-08-22T12:52:20.164Z,18.90
2022-08-22T12:55:10.976Z,17.07
2022-08-22T12:57:50.298Z,17.02
2022-08-22T13:00:30.152Z,19.27
2022-08-22T13:03:06.187Z,19.30
2022-08-22T13:05:42.161Z,14.07
2022-08-22T13:08:23.864Z,17.23
2022-08-22T13:11:03.361Z,17.10
2022-08-22T13:13:41.403Z,18.02
2022-08-22T13:16:19.229Z,20.57
2022-08-22T13:18:55.990Z,18.05
2022-08-22T13:21:34.730Z,15.95
2022-08-22T13:24:11.497Z,17.60
2022-08-22T13:26:51.751Z,17.45
2022-08-22T13:29:39.464Z,19.07
2022-08-22T13:32:04.675Z,15.48
2022-08-22T13:34:43.702Z,14.87
2022-08-22T13:37:20.231Z,11.53
2022-08-22T13:39:58.067Z,15.63
2022-08-22T13:42:35.097Z,7.85
2022-08-22T13:45:14.829Z,10.15
2022-08-22T13:47:55.305Z,9.35
2022-08-22T13:50:37.048Z,11.48
2022-08-22T13:53:09.764Z,8.68
2022-08-22T13:55:49.201Z,11.27
2022-08-22T13:58:25.678Z,7.33
2022-08-22T14:03:48.450Z,9.53
2022-08-22T14:06:35.434Z,8.30
2022-08-22T14:09:08.447Z,7.75
2022-08-22T14:14:17.309Z,10.70
2022-08-22T14:16:55.088Z,11.70
2022-08-22T14:22:07.803Z,10.50
2022-08-22T14:24:46.560Z,9.43
2022-08-22T14:27:33.061Z,12.33
2022-08-22T14:30:11.581Z,13.48
2022-08-22T14:32:49.000Z,6.85
2022-08-22T14:35:34.633Z,10.60
2022-08-22T14:38:05.339Z,11.65
2022-08-22T14:40:42.065Z,20.62
2022-08-22T14:43:22.460Z,11.95
2022-08-22T14:46:01.997Z,14.70
2022-08-22T14:48:40.753Z,9.90
2022-08-22T14:51:21.341Z,8.15
2022-08-22T14:53:56.300Z,8.78
2022-08-22T14:56:33.632Z,8.35
2022-08-22T14:59:10.986Z,11.55
2022-08-22T15:01:58.354Z,5.60
2022-08-22T15:04:36.746Z,11.75
2022-08-22T15:07:12.011Z,13.78
2022-08-22T15:09:48.127Z,11.00
2022-08-22T15:12:28.181Z,9.10
2022-08-22T15:15:04.599Z,10.72
2022-08-22T15:17:44.377Z,7.80
2022-08-22T15:20:28.658Z,9.13
2022-08-22T15:23:10.052Z,10.28
2022-08-22T15:25:47.091Z,12.73
2022-08-22T15:28:21.701Z,14.43
2022-08-22T15:31:05.932Z,10.72
2022-08-22T15:33:43.426Z,10.53
2022-08-22T15:36:20.275Z,8.68
2022-08-22T15:38:56.003Z,7.80
2022-08-22T15:41:40.207Z,6.83
2022-08-22T15:44:17.265Z,7.30
2022-08-22T15:47:02.173Z,11.93
2022-08-22T15:49:38.587Z,9.08
2022-08-22T15:52:24.169Z,9.35
2022-08-22T15:58:16.351Z,10.93
2022-08-22T16:00:57.151Z,10.98
2022-08-22T16:03:34.448Z,8.03
2022-08-22T16:06:11.593Z,9.93
2022-08-22T16:08:51.828Z,11.55
2022-08-22T16:11:33.412Z,9.03
2022-08-22T16:14:25.284Z,7.50
2022-08-22T16:17:04.117Z,8.55
2022-08-22T16:19:41.312Z,12.47
2022-08-22T16:22:17.339Z,13.05
2022-08-22T16:25:10.199Z,12.00
2022-08-22T16:27:58.818Z,9.30
2022-08-22T16:30:40.439Z,5.70
2022-08-22T16:33:18.399Z,7.95
2022-08-22T16:36:18.880Z,10.80
2022-08-22T16:38:54.897Z,9.00
2022-08-22T16:41:40.026Z,11.45
2022-08-22T16:44:23.709Z,7.65
2022-08-22T16:47:00.679Z,16.23
2022-08-22T16:49:36.827Z,8.13
2022-08-22T16:52:44.909Z,12.73
2022-08-22T16:56:01.564Z,12.80
2022-08-22T16:59:19.587Z,6.67
2022-08-22T17:01:49.987Z,15.35
2022-08-22T17:04:27.999Z,10.88
2022-08-22T17:07:14.410Z,8.80
2022-08-22T17:09:59.005Z,11.33
2022-08-22T17:12:42.959Z,7.95
2022-08-22T17:15:22.551Z,9.95
2022-08-22T17:18:11.753Z,11.93
2022-08-22T17:20:48.869Z,8.75
2022-08-22T17:23:28.963Z,13.00
2022-08-22T17:26:05.994Z,7.62
2022-08-22T17:28:42.625Z,6.08
2022-08-22T17:31:20.138Z,11.37
2022-08-22T17:36:36.748Z,10.10
2022-08-22T17:39:15.163Z,9.25
2022-08-22T17:41:52.400Z,7.83
2022-08-22T17:44:29.231Z,8.05
2022-08-22T17:47:05.588Z,6.17
2022-08-22T17:49:49.137Z,10.00
2022-08-22T17:52:27.057Z,11.85
2022-08-22T17:55:03.717Z,9.35
2022-08-22T17:57:38.956Z,8.83
2022-08-22T18:00:18.544Z,11.70
2022-08-22T18:02:58.363Z,12.73
2022-08-22T18:05:35.377Z,8.68
2022-08-22T18:08:37.380Z,11.28
2022-08-22T18:10:51.963Z,8.23
2022-08-22T18:13:35.397Z,13.48
2022-08-22T18:16:15.443Z,15.13
2022-08-22T18:18:52.531Z,11.30
2022-08-22T18:21:29.106Z,9.90
2022-08-22T18:24:05.774Z,12.53
2022-08-22T18:26:43.768Z,20.80
2022-08-22T18:29:23.195Z,7.67
2022-08-22T18:31:59.925Z,17.02
2022-08-22T18:34:40.981Z,12.03
2022-08-22T18:37:22.156Z,10.00
2022-08-22T18:40:01.473Z,13.08
2022-08-22T18:42:37.963Z,11.12
2022-08-22T18:45:18.629Z,8.88
2022-08-22T18:48:00.270Z,12.75
2022-08-22T18:50:36.868Z,17.75
2022-08-22T18:56:25.699Z,12.18
2022-08-22T18:59:10.335Z,13.50
2022-08-22T19:01:54.192Z,11.05
2022-08-22T19:08:08.875Z,12.10
2022-08-22T19:10:53.233Z,22.62
2022-08-22T19:13:39.198Z,17.92
2022-08-22T19:16:24.812Z,17.15
2022-08-22T19:19:01.385Z,12.73
2022-08-22T19:21:54.212Z,10.28
2022-08-22T19:24:59.525Z,10.43
2022-08-22T19:33:27.680Z,11.33
2022-08-22T19:36:13.324Z,9.05
2022-08-22T19:39:09.028Z,12.33
2022-08-22T19:41:51.730Z,14.53
2022-08-22T19:44:45.777Z,12.90
2022-08-22T19:47:30.170Z,15.45
2022-08-22T19:50:07.763Z,13.80
2022-08-22T19:53:02.301Z,10.85
2022-08-22T19:55:45.256Z,13.38
2022-08-22T19:58:31.704Z,15.65
2022-08-22T20:01:00.758Z,11.28
2022-08-22T20:06:33.624Z,16.85
2022-08-22T20:09:00.809Z,12.63
2022-08-22T20:11:42.512Z,14.38
2022-08-22T20:14:30.519Z,13.78
2022-08-22T20:17:10.477Z,15.05
2022-08-22T20:22:25.684Z,15.38
2022-08-22T20:25:02.535Z,15.50
2022-08-22T20:27:39.603Z,17.27
2022-08-22T20:30:16.782Z,16.62
2022-08-22T20:32:53.979Z,17.42
2022-08-22T20:35:31.082Z,18.98
2022-08-22T20:40:56.058Z,22.48
2022-08-22T20:43:21.205Z,21.85
2022-08-22T20:45:57.999Z,19.95
2022-08-22T20:48:38.955Z,20.32
2022-08-22T20:51:16.779Z,23.67
2022-08-22T20:56:48.645Z,19.20
2022-08-22T20:59:24.785Z,21.75
2022-08-22T21:02:03.192Z,26.82
2022-08-22T21:04:44.652Z,23.65
2022-08-22T21:07:26.217Z,27.00
2022-08-22T21:10:22.753Z,26.50
2022-08-22T21:13:11.331Z,23.98
2022-08-22T21:15:47.674Z,22.32
2022-08-22T21:18:31.160Z,25.92
2022-08-22T21:21:17.188Z,24.67
2022-08-22T21:23:47.949Z,26.65
2022-08-22T21:26:27.656Z,22.82
2022-08-22T21:29:04.115Z,25.20
2022-08-22T21:31:41.753Z,25.27
2022-08-22T21:34:21.283Z,23.32
2022-08-22T21:36:57.973Z,31.37
2022-08-22T21:39:34.338Z,24.05
2022-08-22T21:42:18.052Z,26.27
2022-08-22T21:45:00.414Z,29.40
2022-08-22T21:47:37.666Z,28.02
2022-08-22T21:50:19.013Z,30.52
2022-08-22T21:53:05.982Z,31.00
2022-08-22T21:55:44.532Z,29.40
2022-08-22T21:58:36.972Z,25.08
2022-08-22T22:01:29.147Z,30.23
2022-08-22T22:04:02.620Z,27.37
2022-08-22T22:06:36.033Z,29.50
2022-08-22T22:09:14.524Z,27.93
2022-08-22T22:11:45.232Z,30.92
2022-08-22T22:14:18.734Z,35.50
2022-08-22T22:16:52.350Z,34.60
2022-08-22T22:19:26.065Z,29.75
2022-08-22T22:21:59.742Z,29.85
2022-08-22T22:24:33.116Z,37.63
2022-08-22T22:27:07.740Z,33.08
2022-08-22T22:29:41.211Z,35.13
2022-08-22T22:32:15.293Z,30.25
2022-08-22T22:34:48.848Z,30.35
2022-08-22T22:37:22.350Z,30.40
2022-08-22T22:39:56.213Z,38.08
2022-08-22T22:42:29.698Z,34.80
2022-08-22T22:45:03.540Z,34.78
2022-08-22T22:47:38.191Z,29.55
2022-08-22T22:50:12.174Z,33.10
2022-08-22T22:52:45.597Z,30.68
2022-08-22T22:55:24.308Z,33.70
2022-08-22T22:57:59.276Z,32.30
2022-08-22T23:00:33.409Z,32.00
2022-08-22T23:03:07.949Z,34.13
2022-08-22T23:05:41.500Z,35.08
2022-08-22T23:08:15.101Z,29.95
2022-08-22T23:10:48.625Z,26.48
2022-08-22T23:13:22.369Z,28.83
2022-08-22T23:15:55.965Z,33.15
2022-08-22T23:18:32.060Z,26.85
2022-08-22T23:21:16.571Z,26.05
2022-08-22T23:23:50.658Z,38.50
2022-08-22T23:26:24.479Z,25.45
2022-08-22T23:28:58.741Z,27.30
2022-08-22T23:31:35.217Z,34.13
2022-08-22T23:34:11.186Z,30.60
2022-08-22T23:36:47.190Z,26.33
2022-08-22T23:39:21.999Z,37.98
2022-08-22T23:41:55.755Z,36.10
2022-08-22T23:44:31.812Z,40.25
2022-08-22T23:47:06.544Z,34.15
2022-08-22T23:49:43.846Z,32.80
2022-08-22T23:52:24.134Z,30.88
2022-08-22T23:54:57.688Z,29.55
2022-08-22T23:57:31.254Z,26.30
